KMDJ

Mississippi Canyon

Mississippi Canyon, Louisiana, USA
METAR KMDJ 170015Z AUTO 03013KT 10SM BKN017 12/08 A3026 RMK A01
Observed Flight Rules
Dec-17 @ 00:15 UTC (17 minutes ago) Marginal Visual Flight Rules
Wind Visibility Clouds
30° at 13 knots 10 miles
  • Broken at 1,700' AGL
Temperatures Readings
Current 12°C / 54°F
Dewpoint 8°C / 46°F
Humidity 77%
Altimeter 30.26" Hg
Pressure 1025 hPa
Elevation 31
METAR KMDJ 170015Z AUTO 03013KT 10SM BKN017 12/08 A3026 RMK A01
Observed Flight Rules
Dec-17 @ 00:15 UTC
(17 minutes ago)
MVFR
Wind Visibility
30° at 13 knots 10 miles
Clouds
  • Broken at 1,700' AGL
Temperature Dewpoint
12°C / 54°F 8°C / 46°F
Humidity Altimeter Pressure
77% 30.26" Hg 1025 hPa